Airfield :
LOGIN :

Register | Disclaimer

   EN    FR    IT 

 










Legend :    VFR   Marginal VFR   IFR   Intensive IFR   Very Intensive IFR
Visi :
Ceiling :
>= 8 km
>= 3000ft
5 to 8 km
1000 to 3000 ft
1500m to 5 km
500 to 1000 ft
800 to 1500m
200 to 500 ft
< 800m
< 200 ft
Symbols :   Thunderstorms  Fog  Heavy snow  Heavy precipitations  Wind > 20 kt
SIGMETs :     Misc.  Thunderstorms  Icing  Turbulence  Mountain Waves  Volcanic Ashes






- Airport Elevation : 1910 ft
- IATA code : RDZ


LFCR - Rodez

CURRENT METAR :
  • 281600Z AUTO 33007KT 290V010 CAVOK 26/08 Q1022 NOSIG

EXPIRED METARs :
  • 281530Z AUTO 33007KT 300V010 CAVOK 26/06 Q1023 NOSIG
  • 281500Z AUTO VRB05KT CAVOK 26/06 Q1023 NOSIG
  • 281430Z AUTO 35006KT 290V070 CAVOK 26/04 Q1023 NOSIG
  • 281400Z AUTO 35006KT 300V050 CAVOK 26/04 Q1024 NOSIG
  • 281330Z AUTO 35006KT 280V030 CAVOK 25/05 Q1024 NOSIG

TAF TAF LFCR
Valid from the 28 at 12:00 until the 29 at 12:00 UTC


281100Z 2812/2912 12006KT CAVOK
TEMPO 2813/2818 34010KT



MET'MAP, your aeronautical weather chart ! - Copyright ORBIFLY December 2007 - Disclaimer

ORBIFLY MET'MAP TEAM :

Programming & Development : Alexandra Zaïnal
Concept & original design : Baudouin d'Aumeries
Assistance for programming : Marc-Olivier Méhu
Technical & hardware support : Manuel Goepfert

Contact : metmap@orbifly.com




SOURCES & CREDITS :

   NOAA